RYR79RN LZIB-EGPH
Flight info
| Callsign | RYR79RN |
|---|---|
| Flight time | 2h 20m |
| Altitude | 36000 |
| Route | TOVKA DCT DITIS DCT VEXIL DCT KUMER DCT LONAM DCT AGPED |
| Aircraft | B738/M-SDE2E3FGHIRWXY/LB1 |
Departure
| Time | 2026-05-07 06:21 |
|---|---|
| Airport | M. R. Štefánik Airport (LZIB) |
Arrival
| Time | 2026-05-07 08:42 |
|---|---|
| Airport | Edinburgh Airport (EGPH) |
| Time | Latitude | Longitude | Altitude | Speed | Heading |
|---|---|---|---|---|---|
| 2026-05-07 05:58 | 48.17003 | 17.20216 | 421 ft | 0 kts | 314° |
| 2026-05-07 06:11 | 48.17002 | 17.20217 | 430 ft | 1 kts | 314° |
| 2026-05-07 06:11 | 48.16985 | 17.20241 | 419 ft | 4 kts | 328° |
| 2026-05-07 06:11 | 48.16961 | 17.20256 | 426 ft | 4 kts | 1° |
| 2026-05-07 06:12 | 48.16941 | 17.20246 | 428 ft | 1 kts | 44° |
| 2026-05-07 06:12 | 48.16937 | 17.20241 | 427 ft | 0 kts | 44° |
| 2026-05-07 06:15 | 48.16939 | 17.20244 | 428 ft | 1 kts | 44° |
| 2026-05-07 06:15 | 48.16968 | 17.20286 | 423 ft | 11 kts | 44° |
| 2026-05-07 06:15 | 48.17042 | 17.20394 | 430 ft | 17 kts | 44° |
| 2026-05-07 06:16 | 48.17132 | 17.20523 | 430 ft | 19 kts | 44° |
| 2026-05-07 06:16 | 48.17136 | 17.20691 | 420 ft | 19 kts | 134° |
| 2026-05-07 06:16 | 48.17047 | 17.20839 | 419 ft | 19 kts | 135° |
| 2026-05-07 06:16 | 48.16957 | 17.20976 | 430 ft | 19 kts | 133° |
| 2026-05-07 06:17 | 48.16858 | 17.21133 | 429 ft | 22 kts | 133° |
| 2026-05-07 06:17 | 48.16756 | 17.21299 | 430 ft | 22 kts | 133° |
| 2026-05-07 06:17 | 48.16647 | 17.21465 | 430 ft | 22 kts | 135° |
| 2026-05-07 06:17 | 48.16530 | 17.21634 | 422 ft | 24 kts | 136° |
| 2026-05-07 06:18 | 48.16409 | 17.21820 | 424 ft | 25 kts | 130° |
| 2026-05-07 06:18 | 48.16297 | 17.22004 | 426 ft | 23 kts | 132° |
| 2026-05-07 06:18 | 48.16188 | 17.22175 | 430 ft | 22 kts | 134° |
| 2026-05-07 06:18 | 48.16082 | 17.22341 | 430 ft | 22 kts | 134° |
| 2026-05-07 06:19 | 48.15972 | 17.22510 | 430 ft | 24 kts | 133° |
| 2026-05-07 06:19 | 48.15853 | 17.22694 | 430 ft | 24 kts | 135° |
| 2026-05-07 06:19 | 48.15739 | 17.22872 | 430 ft | 23 kts | 131° |
| 2026-05-07 06:19 | 48.15681 | 17.23087 | 428 ft | 22 kts | 93° |
| 2026-05-07 06:20 | 48.15769 | 17.23190 | 423 ft | 20 kts | 317° |
| 2026-05-07 06:20 | 48.15864 | 17.23044 | 421 ft | 19 kts | 314° |
| 2026-05-07 06:20 | 48.15966 | 17.22886 | 422 ft | 34 kts | 313° |
| 2026-05-07 06:20 | 48.16295 | 17.22374 | 421 ft | 101 kts | 313° |
| 2026-05-07 06:21 | 48.16921 | 17.21402 | 433 ft | 156 kts | 314° |
| 2026-05-07 06:21 | 48.17723 | 17.20163 | 941 ft | 167 kts | 310° |
| 2026-05-07 06:21 | 48.18507 | 17.18850 | 1674 ft | 173 kts | 312° |
| 2026-05-07 06:21 | 48.19353 | 17.17574 | 2486 ft | 173 kts | 311° |
| 2026-05-07 06:22 | 48.20212 | 17.16243 | 3094 ft | 185 kts | 312° |
| 2026-05-07 06:22 | 48.21607 | 17.12707 | 3656 ft | 219 kts | 289° |
| 2026-05-07 06:22 | 48.22168 | 17.10419 | 3883 ft | 246 kts | 290° |
| 2026-05-07 06:23 | 48.22805 | 17.07982 | 4502 ft | 254 kts | 291° |
| 2026-05-07 06:23 | 48.23472 | 17.05487 | 5220 ft | 261 kts | 291° |
| 2026-05-07 06:23 | 48.24162 | 17.02963 | 5973 ft | 265 kts | 291° |
| 2026-05-07 06:23 | 48.24871 | 17.00387 | 6671 ft | 269 kts | 291° |
| 2026-05-07 06:24 | 48.25590 | 16.97786 | 7417 ft | 271 kts | 290° |
| 2026-05-07 06:24 | 48.26311 | 16.95178 | 8114 ft | 275 kts | 290° |
| 2026-05-07 06:24 | 48.27055 | 16.92509 | 8870 ft | 278 kts | 291° |
| 2026-05-07 06:24 | 48.27917 | 16.89889 | 9601 ft | 283 kts | 294° |
| 2026-05-07 06:25 | 48.28858 | 16.87264 | 10251 ft | 289 kts | 295° |
| 2026-05-07 06:25 | 48.29854 | 16.84521 | 10452 ft | 311 kts | 295° |
| 2026-05-07 06:25 | 48.30923 | 16.81573 | 10685 ft | 330 kts | 295° |
| 2026-05-07 06:25 | 48.32034 | 16.78505 | 11225 ft | 337 kts | 295° |
| 2026-05-07 06:26 | 48.33157 | 16.75397 | 11959 ft | 339 kts | 295° |
| 2026-05-07 06:26 | 48.34279 | 16.72278 | 12725 ft | 340 kts | 295° |
| 2026-05-07 06:26 | 48.35407 | 16.69129 | 13472 ft | 343 kts | 294° |
| 2026-05-07 06:26 | 48.36541 | 16.65952 | 14153 ft | 347 kts | 294° |
| 2026-05-07 06:27 | 48.37684 | 16.62738 | 14822 ft | 350 kts | 294° |
| 2026-05-07 06:27 | 48.38834 | 16.59501 | 15514 ft | 352 kts | 294° |
| 2026-05-07 06:27 | 48.39993 | 16.56231 | 16204 ft | 357 kts | 293° |
| 2026-05-07 06:27 | 48.41167 | 16.52913 | 16810 ft | 362 kts | 292° |
| 2026-05-07 06:28 | 48.42353 | 16.49556 | 17500 ft | 364 kts | 292° |
| 2026-05-07 06:28 | 48.43547 | 16.46173 | 18169 ft | 367 kts | 292° |
| 2026-05-07 06:28 | 48.44748 | 16.42765 | 18747 ft | 370 kts | 292° |
| 2026-05-07 06:28 | 48.45963 | 16.39311 | 19276 ft | 375 kts | 292° |
| 2026-05-07 06:29 | 48.47189 | 16.35821 | 19813 ft | 379 kts | 291° |
| 2026-05-07 06:29 | 48.48429 | 16.32288 | 20360 ft | 383 kts | 291° |
| 2026-05-07 06:29 | 48.49678 | 16.28725 | 20896 ft | 386 kts | 291° |
| 2026-05-07 06:29 | 48.50939 | 16.25123 | 21423 ft | 390 kts | 291° |
| 2026-05-07 06:30 | 48.52196 | 16.21528 | 21919 ft | 394 kts | 291° |
| 2026-05-07 06:30 | 48.53476 | 16.17862 | 22577 ft | 395 kts | 290° |
| 2026-05-07 06:30 | 48.54758 | 16.14192 | 23209 ft | 396 kts | 290° |
| 2026-05-07 06:30 | 48.56044 | 16.10497 | 23651 ft | 400 kts | 290° |
| 2026-05-07 06:31 | 48.57343 | 16.06757 | 24047 ft | 404 kts | 290° |
| 2026-05-07 06:31 | 48.58648 | 16.02998 | 24485 ft | 406 kts | 290° |
| 2026-05-07 06:31 | 48.59962 | 15.99209 | 24924 ft | 408 kts | 290° |
| 2026-05-07 06:31 | 48.61279 | 15.95405 | 25357 ft | 410 kts | 290° |
| 2026-05-07 06:32 | 48.62603 | 15.91576 | 25778 ft | 412 kts | 290° |
| 2026-05-07 06:32 | 48.63930 | 15.87730 | 26181 ft | 414 kts | 290° |
| 2026-05-07 06:32 | 48.65266 | 15.83852 | 26576 ft | 417 kts | 290° |
| 2026-05-07 06:32 | 48.66609 | 15.79949 | 27007 ft | 419 kts | 290° |
| 2026-05-07 06:33 | 48.67957 | 15.76022 | 27355 ft | 422 kts | 290° |
| 2026-05-07 06:33 | 48.69316 | 15.72060 | 27720 ft | 425 kts | 290° |
| 2026-05-07 06:33 | 48.70682 | 15.68073 | 28078 ft | 428 kts | 290° |
| 2026-05-07 06:33 | 48.72054 | 15.64058 | 28415 ft | 431 kts | 290° |
| 2026-05-07 06:34 | 48.73434 | 15.60018 | 28767 ft | 433 kts | 289° |
| 2026-05-07 06:34 | 48.74819 | 15.55958 | 29118 ft | 435 kts | 289° |
| 2026-05-07 06:34 | 48.76209 | 15.51872 | 29440 ft | 438 kts | 289° |
| 2026-05-07 06:34 | 48.77611 | 15.47746 | 29753 ft | 441 kts | 289° |
| 2026-05-07 06:35 | 48.79017 | 15.43604 | 30093 ft | 443 kts | 289° |
| 2026-05-07 06:35 | 48.80426 | 15.39446 | 30408 ft | 443 kts | 289° |
| 2026-05-07 06:35 | 48.81835 | 15.35282 | 30720 ft | 444 kts | 289° |
| 2026-05-07 06:35 | 48.83243 | 15.31115 | 31085 ft | 443 kts | 289° |
| 2026-05-07 06:36 | 48.84644 | 15.26963 | 31513 ft | 440 kts | 289° |
| 2026-05-07 06:36 | 48.86033 | 15.22841 | 31947 ft | 438 kts | 289° |
| 2026-05-07 06:36 | 48.87415 | 15.18727 | 32322 ft | 436 kts | 288° |
| 2026-05-07 06:36 | 48.88795 | 15.14628 | 32674 ft | 436 kts | 290° |
| 2026-05-07 06:37 | 48.90411 | 15.10684 | 33040 ft | 445 kts | 298° |
| 2026-05-07 06:37 | 48.92459 | 15.07095 | 33473 ft | 451 kts | 305° |
| 2026-05-07 06:37 | 48.94638 | 15.03656 | 33755 ft | 453 kts | 306° |
| 2026-05-07 06:37 | 48.96848 | 15.00218 | 33986 ft | 454 kts | 306° |
| 2026-05-07 06:38 | 48.99056 | 14.96784 | 34266 ft | 453 kts | 306° |
| 2026-05-07 06:38 | 49.01250 | 14.93350 | 34536 ft | 453 kts | 306° |
| 2026-05-07 06:38 | 49.03409 | 14.89945 | 34744 ft | 453 kts | 306° |
| 2026-05-07 06:38 | 49.05594 | 14.86472 | 34955 ft | 454 kts | 306° |
| 2026-05-07 06:39 | 49.07771 | 14.82996 | 35199 ft | 453 kts | 306° |
| 2026-05-07 06:39 | 49.09947 | 14.79512 | 35430 ft | 453 kts | 306° |
| 2026-05-07 06:39 | 49.12119 | 14.76026 | 35640 ft | 454 kts | 306° |
| 2026-05-07 06:39 | 49.14292 | 14.72532 | 35888 ft | 454 kts | 307° |
| 2026-05-07 06:40 | 49.18671 | 14.65473 | 35932 ft | 460 kts | 307° |
| 2026-05-07 06:40 | 49.23058 | 14.58394 | 35915 ft | 456 kts | 307° |
| 2026-05-07 06:41 | 49.27385 | 14.51400 | 35922 ft | 451 kts | 306° |
| 2026-05-07 06:41 | 49.31690 | 14.44409 | 35927 ft | 451 kts | 306° |
| 2026-05-07 06:42 | 49.35988 | 14.37410 | 35949 ft | 451 kts | 307° |
| 2026-05-07 06:42 | 49.40286 | 14.30394 | 35934 ft | 451 kts | 307° |
| 2026-05-07 06:43 | 49.44577 | 14.23373 | 35909 ft | 449 kts | 307° |
| 2026-05-07 06:43 | 49.48823 | 14.16410 | 35915 ft | 445 kts | 306° |
| 2026-05-07 06:44 | 49.53044 | 14.09463 | 35917 ft | 444 kts | 306° |
| 2026-05-07 06:44 | 49.57247 | 14.02526 | 35947 ft | 443 kts | 307° |
| 2026-05-07 06:45 | 49.61453 | 13.95567 | 35928 ft | 444 kts | 307° |
| 2026-05-07 06:45 | 49.65662 | 13.88582 | 35914 ft | 445 kts | 307° |
| 2026-05-07 06:46 | 49.69870 | 13.81580 | 35915 ft | 445 kts | 307° |
| 2026-05-07 06:46 | 49.74060 | 13.74591 | 35912 ft | 447 kts | 307° |
| 2026-05-07 06:47 | 49.78285 | 13.67525 | 35922 ft | 448 kts | 307° |
| 2026-05-07 06:47 | 49.82519 | 13.60422 | 35908 ft | 449 kts | 307° |
| 2026-05-07 06:48 | 49.86073 | 13.54447 | 35916 ft | 450 kts | 307° |
| 2026-05-07 06:48 | 49.90314 | 13.47297 | 35909 ft | 451 kts | 307° |
| 2026-05-07 06:49 | 49.94557 | 13.40126 | 35898 ft | 451 kts | 307° |
| 2026-05-07 06:49 | 49.98773 | 13.32978 | 35894 ft | 452 kts | 307° |
| 2026-05-07 06:50 | 50.03012 | 13.25772 | 35879 ft | 452 kts | 307° |
| 2026-05-07 06:50 | 50.07243 | 13.18559 | 35884 ft | 451 kts | 307° |
| 2026-05-07 06:51 | 50.11467 | 13.11337 | 35905 ft | 450 kts | 307° |
| 2026-05-07 06:51 | 50.15676 | 13.04121 | 35909 ft | 450 kts | 307° |
| 2026-05-07 06:52 | 50.19873 | 12.96905 | 35912 ft | 449 kts | 307° |
| 2026-05-07 06:52 | 50.24062 | 12.89680 | 35912 ft | 449 kts | 307° |
| 2026-05-07 06:53 | 50.28245 | 12.82446 | 35912 ft | 448 kts | 307° |
| 2026-05-07 06:53 | 50.32422 | 12.75203 | 35911 ft | 448 kts | 307° |
| 2026-05-07 06:54 | 50.36595 | 12.67946 | 35899 ft | 449 kts | 307° |
| 2026-05-07 06:54 | 50.40784 | 12.60677 | 35884 ft | 450 kts | 308° |
| 2026-05-07 06:55 | 50.45056 | 12.53491 | 35877 ft | 451 kts | 309° |
| 2026-05-07 06:55 | 50.49347 | 12.46305 | 35879 ft | 451 kts | 308° |
| 2026-05-07 06:56 | 50.53630 | 12.39089 | 35862 ft | 451 kts | 308° |
| 2026-05-07 06:56 | 50.57900 | 12.31855 | 35875 ft | 452 kts | 308° |
| 2026-05-07 06:57 | 50.62142 | 12.24639 | 35865 ft | 452 kts | 308° |
| 2026-05-07 06:57 | 50.66401 | 12.17374 | 35888 ft | 452 kts | 309° |
| 2026-05-07 06:58 | 50.70660 | 12.10088 | 35877 ft | 452 kts | 309° |
| 2026-05-07 06:58 | 50.74914 | 12.02791 | 35874 ft | 451 kts | 309° |
| 2026-05-07 06:59 | 50.79154 | 11.95498 | 35876 ft | 451 kts | 309° |
| 2026-05-07 06:59 | 50.83388 | 11.88194 | 35878 ft | 450 kts | 308° |
| 2026-05-07 07:00 | 50.87607 | 11.80895 | 35902 ft | 449 kts | 309° |
| 2026-05-07 07:00 | 50.91816 | 11.73589 | 35891 ft | 449 kts | 309° |
| 2026-05-07 07:01 | 50.96014 | 11.66283 | 35891 ft | 448 kts | 309° |
| 2026-05-07 07:01 | 51.00203 | 11.58971 | 35897 ft | 447 kts | 309° |
| 2026-05-07 07:02 | 51.04380 | 11.51660 | 35888 ft | 447 kts | 309° |
| 2026-05-07 07:02 | 51.08556 | 11.44328 | 35903 ft | 448 kts | 309° |
| 2026-05-07 07:03 | 51.12706 | 11.37024 | 35897 ft | 448 kts | 309° |
| 2026-05-07 07:03 | 51.16881 | 11.29652 | 35906 ft | 447 kts | 309° |
| 2026-05-07 07:04 | 51.21042 | 11.22282 | 35903 ft | 447 kts | 309° |
| 2026-05-07 07:04 | 51.25194 | 11.14907 | 35907 ft | 447 kts | 309° |
| 2026-05-07 07:05 | 51.29347 | 11.07510 | 35911 ft | 447 kts | 309° |
| 2026-05-07 07:05 | 51.33489 | 11.00109 | 35919 ft | 446 kts | 309° |
| 2026-05-07 07:06 | 51.37620 | 10.92707 | 35911 ft | 446 kts | 309° |
| 2026-05-07 07:06 | 51.41743 | 10.85299 | 35911 ft | 445 kts | 309° |
| 2026-05-07 07:07 | 51.45854 | 10.77887 | 35914 ft | 444 kts | 309° |
| 2026-05-07 07:07 | 51.49955 | 10.70475 | 35918 ft | 444 kts | 309° |
| 2026-05-07 07:08 | 51.53988 | 10.63071 | 35925 ft | 442 kts | 306° |
| 2026-05-07 07:08 | 51.57365 | 10.54855 | 35914 ft | 440 kts | 299° |
| 2026-05-07 07:09 | 51.60548 | 10.46451 | 35926 ft | 440 kts | 299° |
| 2026-05-07 07:09 | 51.63745 | 10.38052 | 35934 ft | 440 kts | 299° |
| 2026-05-07 07:10 | 51.66971 | 10.29667 | 35926 ft | 440 kts | 300° |
| 2026-05-07 07:10 | 51.70207 | 10.21278 | 35924 ft | 441 kts | 300° |
| 2026-05-07 07:11 | 51.73443 | 10.12873 | 35927 ft | 441 kts | 300° |
| 2026-05-07 07:11 | 51.76676 | 10.04447 | 35931 ft | 442 kts | 300° |
| 2026-05-07 07:12 | 51.79902 | 9.96010 | 35937 ft | 441 kts | 300° |
| 2026-05-07 07:12 | 51.83116 | 9.87576 | 35948 ft | 440 kts | 299° |
| 2026-05-07 07:13 | 51.86321 | 9.79134 | 35943 ft | 440 kts | 299° |
| 2026-05-07 07:13 | 51.89516 | 9.70695 | 35962 ft | 439 kts | 300° |
| 2026-05-07 07:14 | 51.92706 | 9.62237 | 35958 ft | 441 kts | 300° |
| 2026-05-07 07:14 | 51.95902 | 9.53735 | 35951 ft | 442 kts | 300° |
| 2026-05-07 07:15 | 51.99088 | 9.45234 | 35952 ft | 440 kts | 300° |
| 2026-05-07 07:15 | 52.02257 | 9.36752 | 35961 ft | 439 kts | 300° |
| 2026-05-07 07:16 | 52.05393 | 9.28327 | 35965 ft | 438 kts | 299° |
| 2026-05-07 07:16 | 52.08534 | 9.19859 | 35970 ft | 437 kts | 299° |
| 2026-05-07 07:17 | 52.11664 | 9.11395 | 35969 ft | 436 kts | 299° |
| 2026-05-07 07:17 | 52.14786 | 9.02923 | 35967 ft | 436 kts | 299° |
| 2026-05-07 07:18 | 52.17898 | 8.94451 | 35969 ft | 436 kts | 299° |
| 2026-05-07 07:18 | 52.21001 | 8.85973 | 35979 ft | 436 kts | 299° |
| 2026-05-07 07:19 | 52.24101 | 8.77477 | 35972 ft | 436 kts | 299° |
| 2026-05-07 07:19 | 52.27195 | 8.68966 | 35978 ft | 436 kts | 299° |
| 2026-05-07 07:20 | 52.30283 | 8.60448 | 35985 ft | 436 kts | 299° |
| 2026-05-07 07:20 | 52.33364 | 8.51915 | 35994 ft | 436 kts | 299° |
| 2026-05-07 07:21 | 52.36441 | 8.43368 | 36001 ft | 436 kts | 299° |
| 2026-05-07 07:21 | 52.39507 | 8.34820 | 35995 ft | 435 kts | 299° |
| 2026-05-07 07:22 | 52.42565 | 8.26266 | 35995 ft | 435 kts | 299° |
| 2026-05-07 07:22 | 52.45614 | 8.17710 | 35994 ft | 435 kts | 299° |
| 2026-05-07 07:23 | 52.48654 | 8.09147 | 36000 ft | 434 kts | 299° |
| 2026-05-07 07:23 | 52.51683 | 8.00587 | 36001 ft | 433 kts | 299° |
| 2026-05-07 07:24 | 52.54704 | 7.92022 | 36002 ft | 433 kts | 299° |
| 2026-05-07 07:24 | 52.57693 | 7.83516 | 36008 ft | 432 kts | 299° |
| 2026-05-07 07:25 | 52.62193 | 7.70659 | 36015 ft | 432 kts | 299° |
| 2026-05-07 07:26 | 52.65182 | 7.62079 | 36022 ft | 432 kts | 299° |
| 2026-05-07 07:26 | 52.68165 | 7.53491 | 36024 ft | 432 kts | 298° |
| 2026-05-07 07:27 | 52.71143 | 7.44886 | 36022 ft | 432 kts | 298° |
| 2026-05-07 07:27 | 52.74116 | 7.36264 | 36024 ft | 432 kts | 298° |
| 2026-05-07 07:28 | 52.77083 | 7.27631 | 36026 ft | 432 kts | 298° |
| 2026-05-07 07:28 | 52.80045 | 7.18982 | 36033 ft | 433 kts | 298° |
| 2026-05-07 07:29 | 52.83004 | 7.10312 | 36022 ft | 433 kts | 298° |
| 2026-05-07 07:29 | 52.85956 | 7.01632 | 36035 ft | 433 kts | 298° |
| 2026-05-07 07:30 | 52.88902 | 6.92938 | 36025 ft | 433 kts | 298° |
| 2026-05-07 07:30 | 52.91841 | 6.84236 | 36038 ft | 433 kts | 298° |
| 2026-05-07 07:31 | 52.94771 | 6.75531 | 36039 ft | 432 kts | 298° |
| 2026-05-07 07:31 | 52.97692 | 6.66821 | 36044 ft | 432 kts | 298° |
| 2026-05-07 07:32 | 53.00605 | 6.58104 | 36054 ft | 431 kts | 298° |
| 2026-05-07 07:32 | 53.03508 | 6.49384 | 36024 ft | 431 kts | 298° |
| 2026-05-07 07:33 | 53.06403 | 6.40659 | 36032 ft | 431 kts | 298° |
| 2026-05-07 07:33 | 53.09267 | 6.31998 | 36045 ft | 430 kts | 298° |
| 2026-05-07 07:34 | 53.12141 | 6.23274 | 36030 ft | 429 kts | 298° |
| 2026-05-07 07:34 | 53.15001 | 6.14560 | 36037 ft | 428 kts | 298° |
| 2026-05-07 07:35 | 53.17853 | 6.05844 | 36048 ft | 428 kts | 298° |
| 2026-05-07 07:35 | 53.20694 | 5.97125 | 36048 ft | 427 kts | 298° |
| 2026-05-07 07:36 | 53.23530 | 5.88396 | 36051 ft | 428 kts | 298° |
| 2026-05-07 07:36 | 53.26356 | 5.79663 | 36042 ft | 428 kts | 298° |
| 2026-05-07 07:37 | 53.29180 | 5.70905 | 36059 ft | 428 kts | 298° |
| 2026-05-07 07:37 | 53.32000 | 5.62125 | 36055 ft | 429 kts | 298° |
| 2026-05-07 07:38 | 53.34817 | 5.53331 | 36074 ft | 429 kts | 298° |
| 2026-05-07 07:38 | 53.37158 | 5.45995 | 36069 ft | 430 kts | 298° |
| 2026-05-07 07:39 | 53.39968 | 5.37158 | 36063 ft | 430 kts | 298° |
| 2026-05-07 07:39 | 53.42777 | 5.28292 | 36055 ft | 431 kts | 298° |
| 2026-05-07 07:40 | 53.45583 | 5.19409 | 36068 ft | 431 kts | 298° |
| 2026-05-07 07:40 | 53.48380 | 5.10515 | 36071 ft | 431 kts | 298° |
| 2026-05-07 07:41 | 53.51172 | 5.01596 | 36061 ft | 432 kts | 298° |
| 2026-05-07 07:41 | 53.53964 | 4.92662 | 36074 ft | 432 kts | 298° |
| 2026-05-07 07:42 | 53.56754 | 4.83706 | 36076 ft | 432 kts | 298° |
| 2026-05-07 07:42 | 53.59530 | 4.74738 | 36072 ft | 432 kts | 298° |
| 2026-05-07 07:43 | 53.62304 | 4.65761 | 36087 ft | 432 kts | 298° |
| 2026-05-07 07:43 | 53.65069 | 4.56772 | 36089 ft | 432 kts | 298° |
| 2026-05-07 07:44 | 53.67825 | 4.47777 | 36078 ft | 431 kts | 298° |
| 2026-05-07 07:44 | 53.70568 | 4.38789 | 36079 ft | 431 kts | 298° |
| 2026-05-07 07:45 | 53.73304 | 4.29791 | 36076 ft | 431 kts | 298° |
| 2026-05-07 07:45 | 53.76030 | 4.20794 | 36079 ft | 430 kts | 298° |
| 2026-05-07 07:46 | 53.78751 | 4.11788 | 36081 ft | 430 kts | 298° |
| 2026-05-07 07:46 | 53.81465 | 4.02769 | 36089 ft | 430 kts | 298° |
| 2026-05-07 07:47 | 53.84163 | 3.93715 | 36085 ft | 431 kts | 297° |
| 2026-05-07 07:47 | 53.86575 | 3.84418 | 36095 ft | 431 kts | 294° |
| 2026-05-07 07:48 | 53.88837 | 3.75065 | 36086 ft | 432 kts | 293° |
| 2026-05-07 07:48 | 53.91132 | 3.65576 | 36094 ft | 432 kts | 294° |
| 2026-05-07 07:49 | 53.93418 | 3.56209 | 36094 ft | 433 kts | 294° |
| 2026-05-07 07:49 | 53.95728 | 3.46763 | 36105 ft | 433 kts | 293° |
| 2026-05-07 07:50 | 53.98030 | 3.37310 | 36088 ft | 434 kts | 294° |
| 2026-05-07 07:50 | 54.00330 | 3.27833 | 36099 ft | 434 kts | 294° |
| 2026-05-07 07:51 | 54.02623 | 3.18341 | 36099 ft | 434 kts | 293° |
| 2026-05-07 07:51 | 54.04907 | 3.08841 | 36097 ft | 434 kts | 293° |
| 2026-05-07 07:52 | 54.07183 | 2.99330 | 36096 ft | 434 kts | 293° |
| 2026-05-07 07:52 | 54.09453 | 2.89800 | 36098 ft | 434 kts | 293° |
| 2026-05-07 07:53 | 54.11712 | 2.80279 | 36099 ft | 433 kts | 293° |
| 2026-05-07 07:53 | 54.13965 | 2.70742 | 36102 ft | 433 kts | 293° |
| 2026-05-07 07:54 | 54.16207 | 2.61204 | 36094 ft | 433 kts | 292° |
| 2026-05-07 07:54 | 54.18444 | 2.51650 | 36105 ft | 433 kts | 292° |
| 2026-05-07 07:55 | 54.20655 | 2.42162 | 36099 ft | 433 kts | 292° |
| 2026-05-07 07:55 | 54.22872 | 2.32607 | 36109 ft | 432 kts | 292° |
| 2026-05-07 07:56 | 54.25080 | 2.23050 | 36098 ft | 432 kts | 292° |
| 2026-05-07 07:56 | 54.27277 | 2.13492 | 36100 ft | 431 kts | 292° |
| 2026-05-07 07:57 | 54.29462 | 2.03949 | 36099 ft | 430 kts | 291° |
| 2026-05-07 07:57 | 54.31636 | 1.94408 | 36103 ft | 429 kts | 291° |
| 2026-05-07 07:58 | 54.33795 | 1.84891 | 36100 ft | 428 kts | 291° |
| 2026-05-07 07:58 | 54.35943 | 1.75377 | 36101 ft | 427 kts | 291° |
| 2026-05-07 07:59 | 54.38078 | 1.65882 | 36093 ft | 427 kts | 291° |
| 2026-05-07 07:59 | 54.40205 | 1.56374 | 36097 ft | 426 kts | 291° |
| 2026-05-07 08:00 | 54.42322 | 1.46872 | 36089 ft | 426 kts | 291° |
| 2026-05-07 08:00 | 54.44430 | 1.37362 | 36107 ft | 426 kts | 291° |
| 2026-05-07 08:01 | 54.46532 | 1.27843 | 36087 ft | 426 kts | 291° |
| 2026-05-07 08:01 | 54.48628 | 1.18304 | 36085 ft | 427 kts | 291° |
| 2026-05-07 08:02 | 54.50720 | 1.08742 | 36092 ft | 427 kts | 290° |
| 2026-05-07 08:02 | 54.52792 | 0.99225 | 36091 ft | 428 kts | 290° |
| 2026-05-07 08:03 | 54.54871 | 0.89629 | 36095 ft | 428 kts | 290° |
| 2026-05-07 08:03 | 54.56945 | 0.80014 | 36087 ft | 428 kts | 290° |
| 2026-05-07 08:04 | 54.59011 | 0.70392 | 36092 ft | 428 kts | 290° |
| 2026-05-07 08:04 | 54.61070 | 0.60756 | 36084 ft | 428 kts | 290° |
| 2026-05-07 08:05 | 54.63118 | 0.51122 | 36091 ft | 428 kts | 290° |
| 2026-05-07 08:05 | 54.65161 | 0.41472 | 36079 ft | 427 kts | 290° |
| 2026-05-07 08:06 | 54.67190 | 0.31838 | 36080 ft | 427 kts | 290° |
| 2026-05-07 08:06 | 54.69211 | 0.22199 | 36086 ft | 426 kts | 290° |
| 2026-05-07 08:07 | 54.71217 | 0.12582 | 36075 ft | 425 kts | 289° |
| 2026-05-07 08:07 | 54.73212 | 0.02976 | 36094 ft | 424 kts | 289° |
| 2026-05-07 08:08 | 54.75198 | -0.06633 | 36086 ft | 423 kts | 289° |
| 2026-05-07 08:08 | 54.77172 | -0.16232 | 36092 ft | 423 kts | 289° |
| 2026-05-07 08:09 | 54.79134 | -0.25820 | 36079 ft | 421 kts | 289° |
| 2026-05-07 08:09 | 54.81069 | -0.35319 | 36075 ft | 420 kts | 289° |
| 2026-05-07 08:10 | 54.83005 | -0.44872 | 36077 ft | 419 kts | 289° |
| 2026-05-07 08:10 | 54.84931 | -0.54417 | 36064 ft | 419 kts | 289° |
| 2026-05-07 08:11 | 54.86847 | -0.63963 | 36078 ft | 419 kts | 289° |
| 2026-05-07 08:11 | 54.88753 | -0.73504 | 36057 ft | 415 kts | 289° |
| 2026-05-07 08:11 | 54.89691 | -0.78212 | 35777 ft | 411 kts | 289° |
| 2026-05-07 08:12 | 54.90613 | -0.82855 | 35502 ft | 403 kts | 289° |
| 2026-05-07 08:12 | 54.91523 | -0.87448 | 35104 ft | 400 kts | 289° |
| 2026-05-07 08:12 | 54.92423 | -0.92003 | 34750 ft | 397 kts | 289° |
| 2026-05-07 08:12 | 54.93313 | -0.96518 | 34381 ft | 394 kts | 289° |
| 2026-05-07 08:13 | 54.94196 | -1.01003 | 34012 ft | 391 kts | 289° |
| 2026-05-07 08:13 | 54.95071 | -1.05464 | 33605 ft | 388 kts | 289° |
| 2026-05-07 08:13 | 54.95938 | -1.09893 | 33201 ft | 385 kts | 289° |
| 2026-05-07 08:13 | 54.96797 | -1.14287 | 32851 ft | 381 kts | 288° |
| 2026-05-07 08:14 | 54.97646 | -1.18641 | 32480 ft | 379 kts | 288° |
| 2026-05-07 08:14 | 54.98486 | -1.22964 | 32124 ft | 376 kts | 288° |
| 2026-05-07 08:14 | 54.99319 | -1.27253 | 31779 ft | 373 kts | 288° |
| 2026-05-07 08:14 | 55.00145 | -1.31519 | 31438 ft | 370 kts | 288° |
| 2026-05-07 08:15 | 55.00962 | -1.35747 | 31102 ft | 367 kts | 288° |
| 2026-05-07 08:15 | 55.01761 | -1.39892 | 30760 ft | 365 kts | 288° |
| 2026-05-07 08:15 | 55.02565 | -1.44071 | 30422 ft | 362 kts | 288° |
| 2026-05-07 08:15 | 55.03361 | -1.48221 | 30081 ft | 360 kts | 288° |
| 2026-05-07 08:16 | 55.04151 | -1.52344 | 29682 ft | 358 kts | 288° |
| 2026-05-07 08:16 | 55.04932 | -1.56433 | 29342 ft | 353 kts | 288° |
| 2026-05-07 08:16 | 55.05704 | -1.60482 | 28988 ft | 350 kts | 288° |
| 2026-05-07 08:16 | 55.06468 | -1.64493 | 28642 ft | 347 kts | 287° |
| 2026-05-07 08:17 | 55.07223 | -1.68470 | 28303 ft | 343 kts | 287° |
| 2026-05-07 08:17 | 55.07969 | -1.72409 | 27947 ft | 341 kts | 287° |
| 2026-05-07 08:17 | 55.08709 | -1.76321 | 27626 ft | 338 kts | 287° |
| 2026-05-07 08:17 | 55.09440 | -1.80197 | 27277 ft | 335 kts | 287° |
| 2026-05-07 08:18 | 55.10167 | -1.84050 | 26943 ft | 333 kts | 287° |
| 2026-05-07 08:18 | 55.10887 | -1.87881 | 26604 ft | 331 kts | 287° |
| 2026-05-07 08:18 | 55.11600 | -1.91681 | 26277 ft | 328 kts | 287° |
| 2026-05-07 08:18 | 55.12339 | -1.95445 | 25922 ft | 328 kts | 292° |
| 2026-05-07 08:19 | 55.13361 | -1.99033 | 25471 ft | 332 kts | 298° |
| 2026-05-07 08:19 | 55.14528 | -2.02534 | 25030 ft | 335 kts | 299° |
| 2026-05-07 08:19 | 55.15739 | -2.06047 | 24575 ft | 339 kts | 300° |
| 2026-05-07 08:19 | 55.16960 | -2.09600 | 24117 ft | 342 kts | 299° |
| 2026-05-07 08:20 | 55.18181 | -2.13203 | 23629 ft | 346 kts | 299° |
| 2026-05-07 08:20 | 55.19401 | -2.16845 | 23092 ft | 348 kts | 298° |
| 2026-05-07 08:20 | 55.20618 | -2.20510 | 22568 ft | 348 kts | 298° |
| 2026-05-07 08:20 | 55.21828 | -2.24185 | 22086 ft | 348 kts | 298° |
| 2026-05-07 08:21 | 55.23034 | -2.27862 | 21602 ft | 348 kts | 298° |
| 2026-05-07 08:21 | 55.24236 | -2.31542 | 21130 ft | 348 kts | 298° |
| 2026-05-07 08:21 | 55.25418 | -2.35168 | 20665 ft | 347 kts | 297° |
| 2026-05-07 08:21 | 55.26615 | -2.38847 | 20199 ft | 347 kts | 297° |
| 2026-05-07 08:22 | 55.27810 | -2.42528 | 19729 ft | 347 kts | 297° |
| 2026-05-07 08:22 | 55.29004 | -2.46212 | 19251 ft | 347 kts | 297° |
| 2026-05-07 08:22 | 55.30211 | -2.49942 | 18788 ft | 347 kts | 297° |
| 2026-05-07 08:22 | 55.31399 | -2.53620 | 18328 ft | 347 kts | 297° |
| 2026-05-07 08:23 | 55.32588 | -2.57303 | 17775 ft | 346 kts | 297° |
| 2026-05-07 08:23 | 55.33773 | -2.60983 | 17280 ft | 346 kts | 297° |
| 2026-05-07 08:23 | 55.34954 | -2.64653 | 16806 ft | 344 kts | 297° |
| 2026-05-07 08:23 | 55.36111 | -2.68255 | 16333 ft | 343 kts | 297° |
| 2026-05-07 08:24 | 55.37279 | -2.71897 | 15857 ft | 341 kts | 297° |
| 2026-05-07 08:24 | 55.38442 | -2.75529 | 15405 ft | 340 kts | 297° |
| 2026-05-07 08:24 | 55.39599 | -2.79149 | 14946 ft | 339 kts | 296° |
| 2026-05-07 08:24 | 55.40754 | -2.82768 | 14492 ft | 339 kts | 296° |
| 2026-05-07 08:25 | 55.41905 | -2.86378 | 14035 ft | 338 kts | 296° |
| 2026-05-07 08:25 | 55.43054 | -2.89989 | 13538 ft | 338 kts | 296° |
| 2026-05-07 08:25 | 55.44202 | -2.93599 | 13033 ft | 337 kts | 296° |
| 2026-05-07 08:25 | 55.45387 | -2.97159 | 12545 ft | 338 kts | 303° |
| 2026-05-07 08:26 | 55.49324 | -3.01582 | 11661 ft | 344 kts | 340° |
| 2026-05-07 08:26 | 55.51610 | -3.02831 | 11176 ft | 344 kts | 341° |
| 2026-05-07 08:26 | 55.53132 | -3.03622 | 10860 ft | 344 kts | 341° |
| 2026-05-07 08:27 | 55.55429 | -3.04802 | 10389 ft | 344 kts | 341° |
| 2026-05-07 08:27 | 55.57727 | -3.05973 | 9919 ft | 343 kts | 341° |
| 2026-05-07 08:27 | 55.59973 | -3.07110 | 9900 ft | 328 kts | 341° |
| 2026-05-07 08:27 | 55.62119 | -3.08189 | 9843 ft | 313 kts | 341° |
| 2026-05-07 08:28 | 55.64158 | -3.09207 | 9706 ft | 297 kts | 341° |
| 2026-05-07 08:28 | 55.66105 | -3.10169 | 9435 ft | 287 kts | 341° |
| 2026-05-07 08:28 | 55.68022 | -3.11113 | 8969 ft | 285 kts | 341° |
| 2026-05-07 08:28 | 55.69916 | -3.12051 | 8585 ft | 279 kts | 341° |
| 2026-05-07 08:29 | 55.71753 | -3.12958 | 8382 ft | 271 kts | 341° |
| 2026-05-07 08:29 | 55.73595 | -3.13856 | 7867 ft | 280 kts | 341° |
| 2026-05-07 08:29 | 55.75492 | -3.14783 | 7501 ft | 285 kts | 341° |
| 2026-05-07 08:29 | 55.77404 | -3.15734 | 7124 ft | 286 kts | 341° |
| 2026-05-07 08:30 | 55.79323 | -3.16696 | 6752 ft | 287 kts | 341° |
| 2026-05-07 08:30 | 55.81251 | -3.17666 | 6377 ft | 288 kts | 341° |
| 2026-05-07 08:30 | 55.83183 | -3.18644 | 5985 ft | 290 kts | 341° |
| 2026-05-07 08:30 | 55.85125 | -3.19633 | 5593 ft | 290 kts | 341° |
| 2026-05-07 08:31 | 55.87067 | -3.20627 | 5203 ft | 290 kts | 341° |
| 2026-05-07 08:31 | 55.89007 | -3.21630 | 4811 ft | 290 kts | 341° |
| 2026-05-07 08:31 | 55.90946 | -3.22637 | 4410 ft | 290 kts | 341° |
| 2026-05-07 08:31 | 55.92879 | -3.23639 | 4026 ft | 290 kts | 341° |
| 2026-05-07 08:32 | 55.94819 | -3.24636 | 3646 ft | 290 kts | 341° |
| 2026-05-07 08:32 | 55.96760 | -3.25627 | 3322 ft | 289 kts | 341° |
| 2026-05-07 08:32 | 55.98678 | -3.26600 | 3081 ft | 284 kts | 341° |
| 2026-05-07 08:32 | 56.00546 | -3.27540 | 3003 ft | 273 kts | 341° |
| 2026-05-07 08:33 | 56.02348 | -3.28440 | 2996 ft | 266 kts | 341° |
| 2026-05-07 08:33 | 56.04134 | -3.29274 | 2990 ft | 266 kts | 349° |
| 2026-05-07 08:33 | 56.05984 | -3.29011 | 3011 ft | 272 kts | 18° |
| 2026-05-07 08:33 | 56.07559 | -3.27235 | 2989 ft | 265 kts | 48° |
| 2026-05-07 08:34 | 56.08572 | -3.24601 | 3002 ft | 252 kts | 60° |
| 2026-05-07 08:34 | 56.09423 | -3.21932 | 2998 ft | 244 kts | 62° |
| 2026-05-07 08:34 | 56.10249 | -3.19290 | 3008 ft | 243 kts | 62° |
| 2026-05-07 08:34 | 56.11073 | -3.16650 | 3009 ft | 243 kts | 62° |
| 2026-05-07 08:35 | 56.11894 | -3.14007 | 3021 ft | 243 kts | 62° |
| 2026-05-07 08:35 | 56.12708 | -3.11377 | 3011 ft | 238 kts | 62° |
| 2026-05-07 08:35 | 56.13329 | -3.08736 | 2989 ft | 222 kts | 86° |
| 2026-05-07 08:35 | 56.13129 | -3.06186 | 2999 ft | 199 kts | 123° |
| 2026-05-07 08:36 | 56.12200 | -3.04546 | 3025 ft | 185 kts | 161° |
| 2026-05-07 08:36 | 56.10961 | -3.04364 | 3030 ft | 180 kts | 197° |
| 2026-05-07 08:36 | 56.09765 | -3.05075 | 3024 ft | 182 kts | 200° |
| 2026-05-07 08:36 | 56.08569 | -3.05801 | 3014 ft | 182 kts | 200° |
| 2026-05-07 08:37 | 56.07372 | -3.06534 | 3007 ft | 182 kts | 200° |
| 2026-05-07 08:37 | 56.06173 | -3.07264 | 3004 ft | 182 kts | 200° |
| 2026-05-07 08:37 | 56.05020 | -3.08101 | 2991 ft | 181 kts | 216° |
| 2026-05-07 08:37 | 56.04307 | -3.09934 | 3020 ft | 180 kts | 246° |
| 2026-05-07 08:38 | 56.03708 | -3.11855 | 3008 ft | 180 kts | 230° |
| 2026-05-07 08:38 | 56.02972 | -3.13676 | 2968 ft | 183 kts | 237° |
| 2026-05-07 08:38 | 56.02327 | -3.15620 | 2743 ft | 179 kts | 237° |
| 2026-05-07 08:38 | 56.01708 | -3.17473 | 2509 ft | 169 kts | 236° |
| 2026-05-07 08:39 | 56.01106 | -3.19246 | 2282 ft | 166 kts | 236° |
| 2026-05-07 08:39 | 56.00505 | -3.21014 | 2064 ft | 169 kts | 236° |
| 2026-05-07 08:39 | 55.99890 | -3.22824 | 1828 ft | 172 kts | 236° |
| 2026-05-07 08:39 | 55.99284 | -3.24610 | 1593 ft | 161 kts | 235° |
| 2026-05-07 08:40 | 55.98747 | -3.26218 | 1379 ft | 144 kts | 235° |
| 2026-05-07 08:40 | 55.98222 | -3.27723 | 1093 ft | 144 kts | 236° |
| 2026-05-07 08:40 | 55.97696 | -3.29260 | 830 ft | 147 kts | 237° |
| 2026-05-07 08:40 | 55.97182 | -3.30816 | 710 ft | 144 kts | 237° |
| 2026-05-07 08:41 | 55.96659 | -3.32336 | 513 ft | 141 kts | 238° |
| 2026-05-07 08:41 | 55.96161 | -3.33815 | 371 ft | 140 kts | 238° |
| 2026-05-07 08:41 | 55.95665 | -3.35278 | 194 ft | 136 kts | 239° |
| 2026-05-07 08:41 | 55.95187 | -3.36695 | 113 ft | 119 kts | 239° |
| 2026-05-07 08:42 | 55.94867 | -3.37642 | 113 ft | 59 kts | 238° |
| 2026-05-07 08:42 | 55.94731 | -3.38034 | 113 ft | 23 kts | 225° |
| 2026-05-07 08:42 | 55.94628 | -3.37988 | 113 ft | 16 kts | 148° |
| 2026-05-07 08:42 | 55.94593 | -3.37886 | 113 ft | 8 kts | 71° |
| 2026-05-07 08:43 | 55.94623 | -3.37793 | 114 ft | 9 kts | 58° |
| 2026-05-07 08:43 | 55.94661 | -3.37683 | 113 ft | 11 kts | 58° |
| 2026-05-07 08:43 | 55.94714 | -3.37532 | 115 ft | 18 kts | 58° |
| 2026-05-07 08:43 | 55.94779 | -3.37337 | 112 ft | 18 kts | 59° |
| 2026-05-07 08:44 | 55.94842 | -3.37147 | 115 ft | 17 kts | 59° |
| 2026-05-07 08:44 | 55.94903 | -3.36963 | 114 ft | 17 kts | 59° |
| 2026-05-07 08:44 | 55.94963 | -3.36788 | 113 ft | 16 kts | 58° |
| 2026-05-07 08:44 | 55.95021 | -3.36620 | 112 ft | 16 kts | 58° |
| 2026-05-07 08:45 | 55.95075 | -3.36457 | 114 ft | 15 kts | 60° |
| 2026-05-07 08:45 | 55.95128 | -3.36296 | 115 ft | 17 kts | 68° |
| 2026-05-07 08:45 | 55.95106 | -3.36070 | 114 ft | 17 kts | 111° |
| 2026-05-07 08:45 | 55.95077 | -3.36009 | 114 ft | 4 kts | 193° |
| 2026-05-07 08:46 | 55.95051 | -3.36055 | 114 ft | 5 kts | 232° |
| 2026-05-07 08:46 | 55.95037 | -3.36089 | 113 ft | 1 kts | 233° |
| 2026-05-07 08:46 | 55.95036 | -3.36091 | 113 ft | 0 kts | 233° |